• Join FlightAware (Why Join?)
  • Login
  • US Flag 
07:13PM EDT


 

Airport Tracker/Info


-or-


 

Live Flight TrackerFlight Track Log ✈ SWA2596 ✈ 31-Jul-2013 ✈ KDEN - KSMF

Flight Track Log - Related Links

Times and Time Zones

All times are in EDT time to prevent confusion due to time zone crossing. See the SWA2596 flight status page for this flight to view local times or setup timezone preferences in your user account.

Time Position Orientation Groundspeed Altitude Reporting Facility
EDT Latitude Longitude Course Direction KTS MPH feet Rate Location/Type
02:11PM 39.8500 -104.7500 298° West 188 216 6,700  Level Denver TRACON
02:12PM 39.8833 -104.8333 298° West 246 283 8,500 1,860 Climbing Denver TRACON
02:13PM 39.8994 -104.8783 295° West 267 307 9,800 1,740 Climbing Denver Center
02:14PM 39.9194 -105.0008 282° West 338 389 11,500 2,220 Climbing Denver Center
02:15PM 39.9297 -105.1308 276° West 361 415 14,500 3,000 Climbing Denver Center
02:16PM 39.9417 -105.2767 276° West 374 430 17,700 3,120 Climbing Denver Center
02:17PM 39.9522 -105.4083 276° West 359 413 21,000 2,520 Climbing Denver Center
02:18PM 39.9686 -105.5444 279° West 354 407 23,000 1,320 Climbing Denver Center
02:19PM 39.9767 -105.6858 274° West 402 463 23,800 1,260 Climbing Denver Center
02:20PM 39.9811 -105.8325 272° West 406 467 25,700 1,740 Climbing Denver Center
02:21PM 39.9886 -105.9833 274° West 417 480 27,500 1,740 Climbing Denver Center
02:22PM 39.9956 -106.1375 273° West 428 493 29,300 2,220 Climbing Denver Center
02:23PM 40.0039 -106.3203 273° West 422 486 32,100 2,340 Climbing Denver Center
02:24PM 40.0108 -106.4650 274° West 404 465 34,200 1,860 Climbing Denver Center
02:25PM 40.0181 -106.6053 274° West 386 444 36,000 840 Climbing Denver Center
02:26PM 40.0244 -106.7597 273° West 381 438 36,000 300 Level Denver Center
02:27PM 40.0303 -106.8925 273° West 382 440 36,700 960 Climbing Denver Center
02:28PM 40.0361 -107.0472 273° West 381 438 38,000 600 Climbing Denver Center
02:29PM 40.0411 -107.1792 273° West 381 438 38,000  Level Denver Center
02:30PM 40.0447 -107.2883 273° West 379 436 38,000  Level Denver Center
02:31PM 40.0517 -107.4644 273° West 380 437 38,000  Level Denver Center
02:32PM 40.0569 -107.5958 273° West 380 437 38,000  Level Denver Center
02:33PM 40.0611 -107.7497 272° West 380 437 38,000  Level Denver Center
02:34PM 40.0664 -107.8800 273° West 377 434 38,000  Level Denver Center
02:35PM 40.0908 -108.0314 282° West 383 441 38,000  Level Denver Center
02:36PM 40.1178 -108.1592 285° West 382 440 38,000  Level Denver Center
02:38PM 40.1497 -108.3117 285° West 387 445 38,000  Level Denver Center
02:38PM 40.1672 -108.3967 285° West 385 443 38,000  Level Salt Lake Center
02:39PM 40.1936 -108.5244 285° West 383 441 38,000  Level Salt Lake Center
02:40PM 40.2200 -108.6522 285° West 381 438 38,000  Level Salt Lake Center
02:41PM 40.2506 -108.8022 285° West 385 443 38,000  Level Salt Lake Center
02:42PM 40.2761 -108.9314 285° West 386 444 38,000  Level Salt Lake Center
02:43PM 40.3072 -109.0828 285° West 386 444 38,000  Level Salt Lake Center
02:44PM 40.3331 -109.2139 285° West 388 447 38,000  Level Salt Lake Center
02:45PM 40.3636 -109.3664 285° West 389 448 38,000  Level Salt Lake Center
02:46PM 40.3894 -109.4975 285° West 390 449 38,000  Level Salt Lake Center
02:47PM 40.4200 -109.6503 285° West 389 448 38,000  Level Salt Lake Center
02:48PM 40.4450 -109.7814 284° West 387 445 38,000  Level Salt Lake Center
02:49PM 40.4742 -109.9317 284° West 382 440 38,000  Level Salt Lake Center
02:51PM 40.4978 -110.0608 284° West 381 438 38,000  Level Salt Lake Center
02:52PM 40.5278 -110.2122 285° West 383 441 38,000  Level Salt Lake Center
02:53PM 40.5519 -110.3414 284° West 382 440 38,000  Level Salt Lake Center
02:54PM 40.5789 -110.4808 284° West 387 445 38,000  Level Salt Lake Center
02:55PM 40.6058 -110.6217 284° West 386 444 38,000  Level Salt Lake Center
02:56PM 40.6311 -110.7600 284° West 388 447 38,000  Level Salt Lake Center
02:57PM 40.6617 -110.9258 284° West 388 447 38,000  Level Salt Lake Center
02:58PM 40.6869 -111.0644 284° West 390 449 38,000  Level Salt Lake Center
02:59PM 40.7125 -111.2022 284° West 388 447 38,000  Level Salt Lake Center
03:00PM 40.7375 -111.3397 284° West 386 444 38,000  Level Salt Lake Center
03:01PM 40.7622 -111.4786 283° West 387 445 38,000  Level Salt Lake Center
03:02PM 40.7867 -111.6175 283° West 388 447 38,000  Level Salt Lake Center
03:03PM 40.8117 -111.7572 283° West 389 448 38,000  Level Salt Lake Center
03:04PM 40.8419 -111.9283 283° West 396 456 38,000  Level Salt Lake Center
03:05PM 40.8453 -112.0722 272° West 398 458 38,000  Level Salt Lake Center
03:06PM 40.8361 -112.2156 265° West 381 438 38,000  Level Salt Lake Center
03:07PM 40.8275 -112.3564 265° West 383 441 38,000  Level Salt Lake Center
03:08PM 40.8181 -112.4983 265° West 388 447 38,000  Level Salt Lake Center
03:09PM 40.8089 -112.6403 265° West 388 447 38,000  Level Salt Lake Center
03:10PM 40.8000 -112.7819 265° West 388 447 38,000  Level Salt Lake Center
03:11PM 40.7861 -112.9500 264° West 383 441 38,000  Level Salt Lake Center
03:12PM 40.7769 -113.0903 265° West 382 440 38,000  Level Salt Lake Center
03:13PM 40.7675 -113.2297 265° West 381 438 38,000  Level Salt Lake Center
03:14PM 40.7589 -113.3669 265° West 376 433 38,000  Level Salt Lake Center
03:15PM 40.7453 -113.5058 263° West 381 438 38,000  Level Salt Lake Center
03:16PM 40.7353 -113.6469 265° West 386 444 38,000  Level Salt Lake Center
03:17PM 40.7225 -113.8167 264° West 388 447 38,000  Level Salt Lake Center
03:18PM 40.7200 -113.9583 269° West 387 445 38,000  Level Salt Lake Center
03:19PM 40.7139 -114.1000 267° West 389 448 38,000  Level Salt Lake Center
03:21PM 40.7083 -114.2414 267° West 388 447 38,000  Level Salt Lake Center
03:22PM 40.7028 -114.3839 267° West 390 449 38,000  Level Salt Lake Center
03:23PM 40.6997 -114.5258 268° West 390 449 38,000  Level Salt Lake Center
03:24PM 40.6928 -114.6939 267° West 386 444 38,000  Level Salt Lake Center
03:25PM 40.6864 -114.8267 266° West 385 443 38,000  Level Salt Lake Center
03:26PM 40.6792 -114.9833 267° West 385 443 38,000  Level Salt Lake Center
03:27PM 40.6719 -115.1169 266° West 383 441 38,000  Level Salt Lake Center
03:28PM 40.6600 -115.2717 264° West 380 437 38,000  Level Salt Lake Center
03:29PM 40.6533 -115.4069 266° West 386 444 38,000  Level Salt Lake Center
03:30PM 40.6464 -115.5431 266° West 390 449 38,000  Level Salt Lake Center
03:31PM 40.6381 -115.7031 266° West 393 452 38,000  Level Salt Lake Center
03:32PM 40.6311 -115.8378 266° West 388 447 38,000  Level Salt Lake Center
03:33PM 40.6231 -115.9956 266° West 387 445 38,000  Level Salt Lake Center
03:34PM 40.6164 -116.1306 266° West 387 445 38,000  Level Salt Lake Center
03:35PM 40.6067 -116.2892 265° West 390 449 38,000  Level Salt Lake Center
03:36PM 40.5992 -116.4233 266° West 386 444 38,000  Level Salt Lake Center
03:37PM 40.5914 -116.5806 266° West 386 444 38,000  Level Salt Lake Center
03:38PM 40.5822 -116.7139 265° West 386 444 38,000  Level Salt Lake Center
03:40PM 40.5617 -116.9553 264° West 397 457 38,000  Level Oakland Center
03:41PM 40.5256 -117.1000 252° West 381 438 38,000  Level Oakland Center
03:42PM 40.4922 -117.2222 250° West 376 433 38,000  Level Oakland Center
03:43PM 40.4547 -117.3647 251° West 372 428 38,000  Level Oakland Center
03:44PM 40.4208 -117.4894 250° West 379 436 38,000  Level Oakland Center
03:45PM 40.3828 -117.6344 251° West 380 437 38,000  Level Oakland Center
03:46PM 40.3481 -117.7581 250° West 379 436 38,000  Level Oakland Center
03:47PM 40.3147 -117.8836 251° West 383 441 38,000  Level Oakland Center
03:48PM 40.2639 -118.0683 250° West 376 433 38,000  Level Salt Lake Center
03:49PM 40.2442 -118.1444 251° West 375 432 38,000  Level Oakland Center
03:50PM 40.2019 -118.2978 250° West 372 428 38,000  Level Oakland Center
03:51PM 40.1658 -118.4286 250° West 379 436 38,000  Level Oakland Center
03:52PM 40.1311 -118.5553 250° West 373 429 38,000  Level Oakland Center
03:53PM 40.0844 -118.6764 243° Southwest 376 433 38,000  Level Oakland Center
03:54PM 40.0350 -118.7917 241° Southwest 370 426 38,000  Level Oakland Center
03:55PM 39.9853 -118.9094 241° Southwest 370 426 38,000 -180 Level Oakland Center
03:56PM 39.9361 -119.0272 241° Southwest 371 427 37,700 -780 Descending Oakland Center
03:57PM 39.8883 -119.1783 248° West 377 434 36,500 -1,080 Descending Oakland Center
03:58PM 39.8531 -119.3117 251° West 388 447 35,500 -960 Descending Oakland Center
03:59PM 39.7986 -119.4303 239° Southwest 385 443 34,600 -960 Descending Oakland Center
04:00PM 39.7439 -119.5494 239° Southwest 385 443 33,600 -960 Descending Oakland Center
04:01PM 39.6881 -119.6706 239° Southwest 391 450 32,700 -1,020 Descending Oakland Center
04:02PM 39.6331 -119.7906 239° Southwest 390 449 31,600 -1,080 Descending Oakland Center
04:03PM 39.5792 -119.9094 240° Southwest 384 442 30,600 -1,140 Descending Oakland Center
04:04PM 39.5150 -120.0489 239° Southwest 375 432 29,300 -1,620 Descending Oakland Center
04:05PM 39.4675 -120.1558 240° Southwest 350 403 27,300 -2,040 Descending Oakland Center
04:07PM 39.4181 -120.2647 240° Southwest 351 404 25,100 -2,100 Descending Oakland Center
04:08PM 39.3686 -120.3703 239° Southwest 344 396 23,100 -1,980 Descending Oakland Center
04:09PM 39.3211 -120.4731 239° Southwest 336 387 21,100 -1,980 Descending Oakland Center
04:10PM 39.2756 -120.5731 240° Southwest 322 371 19,100 -1,860 Descending Oakland Center
04:11PM 39.2286 -120.6706 238° Southwest 316 364 17,300 -1,560 Descending Oakland Center
04:12PM 39.1731 -120.7911 239° Southwest 323 372 16,000 -1,620 Descending Oakland Center
04:13PM 39.1261 -120.8900 239° Southwest 322 371 14,000 -2,160 Descending Oakland Center
04:14PM 39.0797 -120.9908 239° Southwest 325 374 11,600 -1,800 Descending Oakland Center
04:15PM 39.0336 -121.0883 239° Southwest 319 367 10,400 -1,260 Descending Oakland Center
04:16PM 38.9922 -121.1753 239° Southwest 286 329 9,100 -1,500 Descending Oakland Center
04:17PM 38.9544 -121.2592 240° Southwest 270 311 7,400 -1,620 Descending Oakland Center
04:18PM 38.9158 -121.3408 239° Southwest 267 307 5,800 -1,680 Descending Oakland Center
04:19PM 38.8736 -121.4347 240° Southwest 253 291 4,000 -1,320 Descending Oakland Center
04:20PM 38.8378 -121.5106 239° Southwest 247 284 3,100 -840 Descending Oakland Center
04:21PM 38.8083 -121.5769 240° Southwest 217 250 2,400 -840 Descending Oakland Center
04:22PM 38.7697 -121.6017 207° Southwest 183 211 1,400 -960 Descending Oakland Center
04:23PM 38.7322 -121.5994 177° South 153 176 500 -540 Descending Oakland Center
04:24PM 38.6881 -121.6006 181° South 146 168 300 -240 Descending Oakland Center
04:26PM 38.6833 -121.5833 90° East  Level FlightAware Approximate